sensor_id;sensor_type;location;lat;lon;timestamp;P1;durP1;ratioP1;P2;durP2;ratioP2
76495;SDS011;65329;52.544;4.662;2024-03-23T08:56:11;4.40;;;1.13;;
76495;SDS011;65329;52.544;4.662;2024-03-23T08:58:37;6.93;;;1.33;;
76495;SDS011;65329;52.544;4.662;2024-03-23T09:01:10;7.32;;;1.20;;
76495;SDS011;65329;52.544;4.662;2024-03-23T09:03:41;5.43;;;1.45;;
76495;SDS011;65329;52.544;4.662;2024-03-23T09:06:11;5.70;;;1.27;;
76495;SDS011;65329;52.544;4.662;2024-03-23T09:08:38;6.82;;;1.20;;
76495;SDS011;65329;52.544;4.662;2024-03-23T09:11:06;5.70;;;0.88;;
76495;SDS011;65329;52.544;4.662;2024-03-23T09:13:35;4.55;;;1.38;;
76495;SDS011;65329;52.544;4.662;2024-03-23T09:16:01;9.27;;;1.65;;
76495;SDS011;65329;52.544;4.662;2024-03-23T09:18:28;9.23;;;2.08;;
76495;SDS011;65329;52.544;4.662;2024-03-23T09:20:57;7.03;;;1.30;;
76495;SDS011;65329;52.544;4.662;2024-03-23T09:23:23;3.28;;;0.88;;
76495;SDS011;65329;52.544;4.662;2024-03-23T09:25:48;6.00;;;1.30;;
76495;SDS011;65329;52.544;4.662;2024-03-23T09:28:14;5.95;;;1.52;;
76495;SDS011;65329;52.544;4.662;2024-03-23T09:30:40;5.40;;;1.25;;
76495;SDS011;65329;52.544;4.662;2024-03-23T09:33:10;10.48;;;1.30;;
76495;SDS011;65329;52.544;4.662;2024-03-23T09:35:37;8.40;;;1.50;;
76495;SDS011;65329;52.544;4.662;2024-03-23T09:38:03;4.43;;;1.13;;
76495;SDS011;65329;52.544;4.662;2024-03-23T09:40:30;5.28;;;1.35;;
76495;SDS011;65329;52.544;4.662;2024-03-23T09:42:57;7.32;;;1.98;;
76495;SDS011;65329;52.544;4.662;2024-03-23T09:45:27;4.50;;;1.08;;
76495;SDS011;65329;52.544;4.662;2024-03-23T09:47:57;5.10;;;1.23;;
76495;SDS011;65329;52.544;4.662;2024-03-23T09:50:23;6.20;;;1.20;;
76495;SDS011;65329;52.544;4.662;2024-03-23T09:52:49;8.30;;;1.23;;
76495;SDS011;65329;52.544;4.662;2024-03-23T09:55:15;7.10;;;1.30;;
76495;SDS011;65329;52.544;4.662;2024-03-23T09:57:41;6.38;;;1.27;;
76495;SDS011;65329;52.544;4.662;2024-03-23T10:00:08;8.65;;;1.63;;
76495;SDS011;65329;52.544;4.662;2024-03-23T10:02:35;4.65;;;1.50;;
76495;SDS011;65329;52.544;4.662;2024-03-23T10:05:03;7.35;;;1.08;;
76495;SDS011;65329;52.544;4.662;2024-03-23T10:07:29;8.38;;;2.13;;
76495;SDS011;65329;52.544;4.662;2024-03-23T10:09:55;4.95;;;1.38;;
76495;SDS011;65329;52.544;4.662;2024-03-23T10:12:22;8.00;;;1.48;;
76495;SDS011;65329;52.544;4.662;2024-03-23T10:14:49;13.57;;;1.70;;
76495;SDS011;65329;52.544;4.662;2024-03-23T10:17:16;5.18;;;1.20;;
76495;SDS011;65329;52.544;4.662;2024-03-23T10:19:50;6.97;;;0.88;;
76495;SDS011;65329;52.544;4.662;2024-03-23T10:22:18;6.97;;;1.38;;
76495;SDS011;65329;52.544;4.662;2024-03-23T10:24:45;7.13;;;2.25;;
76495;SDS011;65329;52.544;4.662;2024-03-23T10:27:15;7.97;;;1.30;;
76495;SDS011;65329;52.544;4.662;2024-03-23T10:29:46;8.23;;;1.70;;
76495;SDS011;65329;52.544;4.662;2024-03-23T10:32:13;6.80;;;1.60;;
76495;SDS011;65329;52.544;4.662;2024-03-23T10:34:42;3.97;;;1.10;;
76495;SDS011;65329;52.544;4.662;2024-03-23T10:37:08;6.50;;;1.23;;
76495;SDS011;65329;52.544;4.662;2024-03-23T10:39:37;7.65;;;1.27;;
76495;SDS011;65329;52.544;4.662;2024-03-23T10:42:08;5.55;;;1.25;;
76495;SDS011;65329;52.544;4.662;2024-03-23T10:44:36;6.00;;;1.25;;
76495;SDS011;65329;52.544;4.662;2024-03-23T10:47:04;7.43;;;1.65;;
76495;SDS011;65329;52.544;4.662;2024-03-23T10:49:34;7.97;;;1.48;;
76495;SDS011;65329;52.544;4.662;2024-03-23T10:52:02;11.48;;;1.30;;
76495;SDS011;65329;52.544;4.662;2024-03-23T10:54:32;6.22;;;0.98;;
76495;SDS011;65329;52.544;4.662;2024-03-23T10:57:03;5.97;;;1.35;;
76495;SDS011;65329;52.544;4.662;2024-03-23T10:59:33;4.65;;;0.75;;
76495;SDS011;65329;52.544;4.662;2024-03-23T11:02:02;5.80;;;1.73;;
76495;SDS011;65329;52.544;4.662;2024-03-23T11:04:32;11.98;;;1.75;;
76495;SDS011;65329;52.544;4.662;2024-03-23T11:06:59;5.50;;;0.75;;
76495;SDS011;65329;52.544;4.662;2024-03-23T11:09:47;8.70;;;1.13;;
76495;SDS011;65329;52.544;4.662;2024-03-23T11:14:47;5.47;;;1.20;;
76495;SDS011;65329;52.544;4.662;2024-03-23T11:17:20;7.78;;;2.38;;
76495;SDS011;65329;52.544;4.662;2024-03-23T11:27:43;4.85;;;1.45;;
76495;SDS011;65329;52.544;4.662;2024-03-23T11:33:03;4.70;;;1.52;;
76495;SDS011;65329;52.544;4.662;2024-03-23T11:35:32;3.97;;;1.17;;
76495;SDS011;65329;52.544;4.662;2024-03-23T11:38:12;7.50;;;1.10;;
76495;SDS011;65329;52.544;4.662;2024-03-23T11:40:40;4.15;;;1.60;;
76495;SDS011;65329;52.544;4.662;2024-03-23T11:43:08;6.65;;;1.20;;
76495;SDS011;65329;52.544;4.662;2024-03-23T11:45:37;3.85;;;1.20;;
76495;SDS011;65329;52.544;4.662;2024-03-23T11:48:06;6.55;;;1.15;;
76495;SDS011;65329;52.544;4.662;2024-03-23T11:50:36;4.85;;;0.82;;
76495;SDS011;65329;52.544;4.662;2024-03-23T11:55:45;9.50;;;1.23;;
76495;SDS011;65329;52.544;4.662;2024-03-23T11:58:11;9.02;;;1.30;;
76495;SDS011;65329;52.544;4.662;2024-03-23T12:00:37;4.93;;;1.48;;
76495;SDS011;65329;52.544;4.662;2024-03-23T12:03:04;7.22;;;1.30;;
76495;SDS011;65329;52.544;4.662;2024-03-23T12:05:31;6.80;;;1.55;;
76495;SDS011;65329;52.544;4.662;2024-03-23T12:10:50;3.85;;;1.00;;
76495;SDS011;65329;52.544;4.662;2024-03-23T12:13:21;4.25;;;1.17;;
76495;SDS011;65329;52.544;4.662;2024-03-23T12:15:50;19.63;;;1.90;;
76495;SDS011;65329;52.544;4.662;2024-03-23T12:18:17;6.05;;;1.30;;
76495;SDS011;65329;52.544;4.662;2024-03-23T12:20:49;5.65;;;1.25;;
76495;SDS011;65329;52.544;4.662;2024-03-23T12:23:15;9.60;;;1.30;;
76495;SDS011;65329;52.544;4.662;2024-03-23T12:25:42;6.53;;;1.55;;
76495;SDS011;65329;52.544;4.662;2024-03-23T12:28:08;5.40;;;1.25;;
76495;SDS011;65329;52.544;4.662;2024-03-23T12:30:38;5.60;;;1.52;;
76495;SDS011;65329;52.544;4.662;2024-03-23T12:33:06;5.20;;;1.27;;
76495;SDS011;65329;52.544;4.662;2024-03-23T12:35:32;8.23;;;1.77;;
76495;SDS011;65329;52.544;4.662;2024-03-23T12:37:58;8.00;;;1.13;;
76495;SDS011;65329;52.544;4.662;2024-03-23T12:40:24;4.88;;;1.02;;
76495;SDS011;65329;52.544;4.662;2024-03-23T12:42:50;7.55;;;1.50;;
76495;SDS011;65329;52.544;4.662;2024-03-23T12:45:16;8.77;;;1.55;;
76495;SDS011;65329;52.544;4.662;2024-03-23T12:47:42;3.55;;;0.95;;
76495;SDS011;65329;52.544;4.662;2024-03-23T12:50:08;11.88;;;1.25;;
76495;SDS011;65329;52.544;4.662;2024-03-23T12:52:35;1.85;;;0.77;;
76495;SDS011;65329;52.544;4.662;2024-03-23T12:55:02;6.80;;;1.02;;
76495;SDS011;65329;52.544;4.662;2024-03-23T12:57:29;5.07;;;0.88;;
76495;SDS011;65329;52.544;4.662;2024-03-23T12:59:54;6.32;;;0.82;;
76495;SDS011;65329;52.544;4.662;2024-03-23T13:02:21;2.30;;;0.98;;
76495;SDS011;65329;52.544;4.662;2024-03-23T13:04:51;3.85;;;0.80;;
76495;SDS011;65329;52.544;4.662;2024-03-23T13:07:18;2.83;;;1.05;;
76495;SDS011;65329;52.544;4.662;2024-03-23T13:09:44;3.88;;;0.80;;
76495;SDS011;65329;52.544;4.662;2024-03-23T13:12:11;5.20;;;1.25;;
76495;SDS011;65329;52.544;4.662;2024-03-23T13:14:40;4.60;;;1.50;;
76495;SDS011;65329;52.544;4.662;2024-03-23T13:17:07;9.13;;;1.30;;
76495;SDS011;65329;52.544;4.662;2024-03-23T13:19:34;1.92;;;0.50;;
76495;SDS011;65329;52.544;4.662;2024-03-23T13:22:00;5.50;;;0.68;;
76495;SDS011;65329;52.544;4.662;2024-03-23T13:24:27;7.05;;;1.98;;
76495;SDS011;65329;52.544;4.662;2024-03-23T13:26:54;4.75;;;1.13;;
76495;SDS011;65329;52.544;4.662;2024-03-23T13:29:21;6.63;;;1.10;;
76495;SDS011;65329;52.544;4.662;2024-03-23T13:31:48;7.15;;;1.58;;
76495;SDS011;65329;52.544;4.662;2024-03-23T13:34:15;4.35;;;1.17;;
76495;SDS011;65329;52.544;4.662;2024-03-23T13:36:45;3.40;;;1.10;;
76495;SDS011;65329;52.544;4.662;2024-03-23T13:39:12;2.28;;;0.73;;
76495;SDS011;65329;52.544;4.662;2024-03-23T13:41:43;3.33;;;0.43;;
76495;SDS011;65329;52.544;4.662;2024-03-23T13:44:11;2.72;;;0.60;;
76495;SDS011;65329;52.544;4.662;2024-03-23T13:46:37;2.28;;;0.68;;
76495;SDS011;65329;52.544;4.662;2024-03-23T13:49:05;1.65;;;0.50;;
76495;SDS011;65329;52.544;4.662;2024-03-23T13:51:32;3.17;;;0.85;;
76495;SDS011;65329;52.544;4.662;2024-03-23T13:53:58;2.38;;;0.50;;
76495;SDS011;65329;52.544;4.662;2024-03-23T13:56:30;6.40;;;0.90;;
76495;SDS011;65329;52.544;4.662;2024-03-23T13:58:56;5.15;;;0.80;;
76495;SDS011;65329;52.544;4.662;2024-03-23T14:01:22;3.60;;;0.73;;
76495;SDS011;65329;52.544;4.662;2024-03-23T14:03:48;4.70;;;1.80;;
76495;SDS011;65329;52.544;4.662;2024-03-23T14:06:15;4.88;;;0.70;;
76495;SDS011;65329;52.544;4.662;2024-03-23T14:08:41;5.97;;;0.95;;
76495;SDS011;65329;52.544;4.662;2024-03-23T14:11:08;5.57;;;1.10;;
76495;SDS011;65329;52.544;4.662;2024-03-23T14:13:35;4.90;;;0.60;;
76495;SDS011;65329;52.544;4.662;2024-03-23T14:16:01;3.00;;;0.88;;
76495;SDS011;65329;52.544;4.662;2024-03-23T14:18:27;2.92;;;0.47;;
76495;SDS011;65329;52.544;4.662;2024-03-23T14:20:58;2.55;;;0.82;;
76495;SDS011;65329;52.544;4.662;2024-03-23T14:23:27;1.00;;;0.40;;
76495;SDS011;65329;52.544;4.662;2024-03-23T14:25:55;2.13;;;0.70;;
76495;SDS011;65329;52.544;4.662;2024-03-23T14:28:22;3.47;;;1.13;;
76495;SDS011;65329;52.544;4.662;2024-03-23T14:30:52;4.15;;;1.02;;
76495;SDS011;65329;52.544;4.662;2024-03-23T14:33:21;8.88;;;1.05;;
76495;SDS011;65329;52.544;4.662;2024-03-23T14:35:53;12.77;;;1.48;;
76495;SDS011;65329;52.544;4.662;2024-03-23T14:38:21;3.47;;;0.75;;
76495;SDS011;65329;52.544;4.662;2024-03-23T14:40:47;5.32;;;0.90;;
76495;SDS011;65329;52.544;4.662;2024-03-23T14:43:13;2.72;;;0.90;;
76495;SDS011;65329;52.544;4.662;2024-03-23T14:48:32;3.80;;;1.00;;
76495;SDS011;65329;52.544;4.662;2024-03-23T14:50:59;4.30;;;0.80;;
76495;SDS011;65329;52.544;4.662;2024-03-23T14:53:26;2.30;;;0.82;;
76495;SDS011;65329;52.544;4.662;2024-03-23T14:55:56;8.63;;;1.23;;
76495;SDS011;65329;52.544;4.662;2024-03-23T14:58:22;5.78;;;0.73;;
76495;SDS011;65329;52.544;4.662;2024-03-23T15:00:50;1.85;;;0.47;;
76495;SDS011;65329;52.544;4.662;2024-03-23T15:03:17;2.95;;;0.80;;
76495;SDS011;65329;52.544;4.662;2024-03-23T15:05:54;4.13;;;0.80;;
76495;SDS011;65329;52.544;4.662;2024-03-23T15:08:23;3.53;;;0.95;;
76495;SDS011;65329;52.544;4.662;2024-03-23T15:10:49;7.25;;;1.45;;
76495;SDS011;65329;52.544;4.662;2024-03-23T15:15:41;7.25;;;0.98;;
76495;SDS011;65329;52.544;4.662;2024-03-23T15:18:11;6.57;;;1.00;;
76495;SDS011;65329;52.544;4.662;2024-03-23T15:20:54;4.07;;;1.00;;
76495;SDS011;65329;52.544;4.662;2024-03-23T15:23:21;6.50;;;0.70;;
76495;SDS011;65329;52.544;4.662;2024-03-23T15:25:57;3.85;;;0.80;;
76495;SDS011;65329;52.544;4.662;2024-03-23T15:28:24;6.93;;;0.80;;
76495;SDS011;65329;52.544;4.662;2024-03-23T15:30:52;3.95;;;0.77;;
76495;SDS011;65329;52.544;4.662;2024-03-23T15:33:19;3.75;;;0.43;;
76495;SDS011;65329;52.544;4.662;2024-03-23T15:35:45;2.70;;;0.38;;
76495;SDS011;65329;52.544;4.662;2024-03-23T15:38:11;2.13;;;0.70;;
76495;SDS011;65329;52.544;4.662;2024-03-23T15:40:37;4.70;;;0.80;;
76495;SDS011;65329;52.544;4.662;2024-03-23T15:43:03;1.00;;;0.40;;
76495;SDS011;65329;52.544;4.662;2024-03-23T15:45:29;4.95;;;0.40;;
76495;SDS011;65329;52.544;4.662;2024-03-23T15:47:55;1.30;;;0.60;;
76495;SDS011;65329;52.544;4.662;2024-03-23T15:50:21;3.67;;;0.50;;
76495;SDS011;65329;52.544;4.662;2024-03-23T15:52:47;3.40;;;0.60;;
76495;SDS011;65329;52.544;4.662;2024-03-23T15:55:13;3.75;;;0.80;;
76495;SDS011;65329;52.544;4.662;2024-03-23T15:57:39;8.05;;;1.02;;
76495;SDS011;65329;52.544;4.662;2024-03-23T16:00:06;6.57;;;1.23;;
76495;SDS011;65329;52.544;4.662;2024-03-23T16:02:38;1.48;;;0.50;;
76495;SDS011;65329;52.544;4.662;2024-03-23T16:05:04;4.28;;;0.60;;
76495;SDS011;65329;52.544;4.662;2024-03-23T16:07:31;4.13;;;0.68;;
76495;SDS011;65329;52.544;4.662;2024-03-23T16:09:57;3.67;;;0.60;;
76495;SDS011;65329;52.544;4.662;2024-03-23T16:12:29;3.05;;;0.80;;
76495;SDS011;65329;52.544;4.662;2024-03-23T16:14:55;6.07;;;0.68;;
76495;SDS011;65329;52.544;4.662;2024-03-23T16:17:21;3.45;;;0.68;;
76495;SDS011;65329;52.544;4.662;2024-03-23T16:19:47;2.38;;;0.52;;
76495;SDS011;65329;52.544;4.662;2024-03-23T16:22:13;4.85;;;0.88;;
76495;SDS011;65329;52.544;4.662;2024-03-23T16:24:39;5.68;;;1.10;;
76495;SDS011;65329;52.544;4.662;2024-03-23T16:29:31;1.88;;;0.60;;
76495;SDS011;65329;52.544;4.662;2024-03-23T16:34:22;2.55;;;0.20;;
76495;SDS011;65329;52.544;4.662;2024-03-23T16:36:48;0.50;;;0.28;;
76495;SDS011;65329;52.544;4.662;2024-03-23T16:41:41;1.92;;;0.28;;
76495;SDS011;65329;52.544;4.662;2024-03-23T16:44:07;1.67;;;0.25;;
76495;SDS011;65329;52.544;4.662;2024-03-23T16:46:33;6.97;;;0.70;;
76495;SDS011;65329;52.544;4.662;2024-03-23T16:48:59;4.28;;;0.80;;
76495;SDS011;65329;52.544;4.662;2024-03-23T16:51:26;4.60;;;0.82;;
76495;SDS011;65329;52.544;4.662;2024-03-23T16:53:52;1.95;;;0.93;;
76495;SDS011;65329;52.544;4.662;2024-03-23T16:56:21;5.13;;;0.60;;
76495;SDS011;65329;52.544;4.662;2024-03-23T16:58:46;3.13;;;1.05;;
76495;SDS011;65329;52.544;4.662;2024-03-23T17:01:14;4.93;;;0.60;;
76495;SDS011;65329;52.544;4.662;2024-03-23T17:03:48;0.80;;;0.32;;
76495;SDS011;65329;52.544;4.662;2024-03-23T17:06:15;2.58;;;0.30;;
76495;SDS011;65329;52.544;4.662;2024-03-23T17:08:43;1.63;;;0.45;;
76495;SDS011;65329;52.544;4.662;2024-03-23T17:11:15;3.25;;;0.98;;
76495;SDS011;65329;52.544;4.662;2024-03-23T17:13:43;4.18;;;0.45;;
76495;SDS011;65329;52.544;4.662;2024-03-23T17:16:09;3.50;;;0.60;;
76495;SDS011;65329;52.544;4.662;2024-03-23T17:18:36;4.20;;;0.88;;
76495;SDS011;65329;52.544;4.662;2024-03-23T17:21:02;1.67;;;0.80;;
76495;SDS011;65329;52.544;4.662;2024-03-23T17:23:29;5.22;;;1.40;;
76495;SDS011;65329;52.544;4.662;2024-03-23T17:25:56;3.35;;;1.98;;
76495;SDS011;65329;52.544;4.662;2024-03-23T17:28:22;4.88;;;1.40;;
76495;SDS011;65329;52.544;4.662;2024-03-23T17:30:48;5.40;;;1.40;;
76495;SDS011;65329;52.544;4.662;2024-03-23T17:33:14;6.82;;;1.45;;
76495;SDS011;65329;52.544;4.662;2024-03-23T17:35:44;2.80;;;0.63;;
76495;SDS011;65329;52.544;4.662;2024-03-23T17:38:11;4.63;;;0.65;;
76495;SDS011;65329;52.544;4.662;2024-03-23T17:40:37;3.90;;;0.80;;
76495;SDS011;65329;52.544;4.662;2024-03-23T17:43:03;3.60;;;0.47;;
76495;SDS011;65329;52.544;4.662;2024-03-23T17:45:29;3.75;;;1.10;;
76495;SDS011;65329;52.544;4.662;2024-03-23T17:47:55;6.95;;;1.08;;
76495;SDS011;65329;52.544;4.662;2024-03-23T17:50:22;6.18;;;1.58;;
76495;SDS011;65329;52.544;4.662;2024-03-23T17:52:49;3.00;;;0.80;;
76495;SDS011;65329;52.544;4.662;2024-03-23T17:55:15;6.75;;;1.27;;
76495;SDS011;65329;52.544;4.662;2024-03-23T17:57:42;3.03;;;0.50;;
76495;SDS011;65329;52.544;4.662;2024-03-23T18:00:08;5.68;;;0.93;;
76495;SDS011;65329;52.544;4.662;2024-03-23T18:02:37;4.80;;;0.98;;
76495;SDS011;65329;52.544;4.662;2024-03-23T18:05:03;4.65;;;0.90;;
76495;SDS011;65329;52.544;4.662;2024-03-23T18:07:32;3.08;;;0.40;;
76495;SDS011;65329;52.544;4.662;2024-03-23T18:09:58;4.30;;;0.70;;
76495;SDS011;65329;52.544;4.662;2024-03-23T18:12:24;4.03;;;0.68;;
76495;SDS011;65329;52.544;4.662;2024-03-23T18:14:51;6.82;;;0.88;;
76495;SDS011;65329;52.544;4.662;2024-03-23T18:17:17;4.70;;;0.70;;
76495;SDS011;65329;52.544;4.662;2024-03-23T18:19:43;3.15;;;0.60;;
76495;SDS011;65329;52.544;4.662;2024-03-23T18:22:09;4.57;;;1.02;;
76495;SDS011;65329;52.544;4.662;2024-03-23T18:24:35;4.50;;;1.20;;
76495;SDS011;65329;52.544;4.662;2024-03-23T18:27:01;3.13;;;1.05;;
76495;SDS011;65329;52.544;4.662;2024-03-23T18:31:53;2.53;;;0.85;;
76495;SDS011;65329;52.544;4.662;2024-03-23T18:34:19;4.97;;;0.95;;
76495;SDS011;65329;52.544;4.662;2024-03-23T18:36:46;7.45;;;1.17;;
76495;SDS011;65329;52.544;4.662;2024-03-23T18:39:12;2.05;;;0.45;;
76495;SDS011;65329;52.544;4.662;2024-03-23T18:41:38;5.00;;;1.08;;
76495;SDS011;65329;52.544;4.662;2024-03-23T18:44:05;3.92;;;0.80;;
76495;SDS011;65329;52.544;4.662;2024-03-23T18:46:31;4.50;;;0.93;;
76495;SDS011;65329;52.544;4.662;2024-03-23T18:48:59;3.60;;;0.73;;
76495;SDS011;65329;52.544;4.662;2024-03-23T18:51:26;5.10;;;0.90;;
76495;SDS011;65329;52.544;4.662;2024-03-23T18:53:54;4.90;;;1.05;;
76495;SDS011;65329;52.544;4.662;2024-03-23T18:56:22;5.68;;;1.08;;
76495;SDS011;65329;52.544;4.662;2024-03-23T18:58:49;6.32;;;0.80;;
76495;SDS011;65329;52.544;4.662;2024-03-23T19:01:15;6.65;;;1.00;;
76495;SDS011;65329;52.544;4.662;2024-03-23T19:06:06;2.97;;;0.82;;
76495;SDS011;65329;52.544;4.662;2024-03-23T19:11:00;1.90;;;0.75;;
76495;SDS011;65329;52.544;4.662;2024-03-23T19:13:28;2.90;;;1.05;;
76495;SDS011;65329;52.544;4.662;2024-03-23T19:15:54;1.45;;;0.47;;
76495;SDS011;65329;52.544;4.662;2024-03-23T19:18:25;3.95;;;0.82;;
76495;SDS011;65329;52.544;4.662;2024-03-23T19:20:52;1.58;;;0.50;;
76495;SDS011;65329;52.544;4.662;2024-03-23T19:23:19;3.10;;;0.60;;
76495;SDS011;65329;52.544;4.662;2024-03-23T19:25:57;4.15;;;0.73;;
76495;SDS011;65329;52.544;4.662;2024-03-23T19:28:24;4.50;;;0.80;;
76495;SDS011;65329;52.544;4.662;2024-03-23T19:30:51;5.57;;;1.52;;
76495;SDS011;65329;52.544;4.662;2024-03-23T19:33:18;4.30;;;1.00;;
76495;SDS011;65329;52.544;4.662;2024-03-23T19:35:45;4.75;;;0.95;;
76495;SDS011;65329;52.544;4.662;2024-03-23T19:38:14;0.68;;;0.40;;
76495;SDS011;65329;52.544;4.662;2024-03-23T19:40:40;4.68;;;0.55;;
76495;SDS011;65329;52.544;4.662;2024-03-23T19:43:06;6.03;;;1.00;;
76495;SDS011;65329;52.544;4.662;2024-03-23T19:47:59;3.80;;;0.70;;
76495;SDS011;65329;52.544;4.662;2024-03-23T19:50:26;2.33;;;0.88;;
76495;SDS011;65329;52.544;4.662;2024-03-23T19:55:18;2.35;;;0.38;;
76495;SDS011;65329;52.544;4.662;2024-03-23T19:57:45;2.60;;;0.50;;
76495;SDS011;65329;52.544;4.662;2024-03-23T20:00:12;2.00;;;0.50;;
76495;SDS011;65329;52.544;4.662;2024-03-23T20:02:39;2.03;;;0.55;;
76495;SDS011;65329;52.544;4.662;2024-03-23T20:05:05;3.67;;;1.25;;
76495;SDS011;65329;52.544;4.662;2024-03-23T20:07:32;4.82;;;1.23;;
76495;SDS011;65329;52.544;4.662;2024-03-23T20:12:23;6.90;;;1.00;;
76495;SDS011;65329;52.544;4.662;2024-03-23T20:14:50;4.75;;;0.77;;
76495;SDS011;65329;52.544;4.662;2024-03-23T20:19:42;2.45;;;0.90;;
76495;SDS011;65329;52.544;4.662;2024-03-23T20:22:10;4.10;;;1.10;;
76495;SDS011;65329;52.544;4.662;2024-03-23T20:24:36;2.33;;;0.90;;
76495;SDS011;65329;52.544;4.662;2024-03-23T20:27:02;3.05;;;1.00;;
76495;SDS011;65329;52.544;4.662;2024-03-23T20:29:30;5.13;;;0.90;;
76495;SDS011;65329;52.544;4.662;2024-03-23T20:34:22;2.95;;;1.00;;
76495;SDS011;65329;52.544;4.662;2024-03-23T20:36:48;5.97;;;1.00;;
76495;SDS011;65329;52.544;4.662;2024-03-23T20:39:16;3.40;;;0.90;;
76495;SDS011;65329;52.544;4.662;2024-03-23T20:41:42;3.90;;;1.17;;
76495;SDS011;65329;52.544;4.662;2024-03-23T20:44:09;6.45;;;1.17;;
76495;SDS011;65329;52.544;4.662;2024-03-23T20:46:35;2.35;;;0.95;;
76495;SDS011;65329;52.544;4.662;2024-03-23T20:49:01;2.35;;;1.10;;
76495;SDS011;65329;52.544;4.662;2024-03-23T20:51:27;4.53;;;0.82;;
76495;SDS011;65329;52.544;4.662;2024-03-23T20:56:19;3.40;;;0.70;;
76495;SDS011;65329;52.544;4.662;2024-03-23T20:58:45;1.85;;;0.77;;
76495;SDS011;65329;52.544;4.662;2024-03-23T21:03:37;3.25;;;0.80;;
76495;SDS011;65329;52.544;4.662;2024-03-23T21:06:03;3.95;;;1.10;;
76495;SDS011;65329;52.544;4.662;2024-03-23T21:08:32;2.88;;;1.17;;
76495;SDS011;65329;52.544;4.662;2024-03-23T21:11:01;3.20;;;0.77;;
76495;SDS011;65329;52.544;4.662;2024-03-23T21:13:29;4.22;;;0.93;;
76495;SDS011;65329;52.544;4.662;2024-03-23T21:15:58;5.93;;;0.77;;
76495;SDS011;65329;52.544;4.662;2024-03-23T21:18:28;1.73;;;0.82;;
76495;SDS011;65329;52.544;4.662;2024-03-23T21:20:55;2.30;;;0.93;;
76495;SDS011;65329;52.544;4.662;2024-03-23T21:23:29;2.55;;;1.13;;
76495;SDS011;65329;52.544;4.662;2024-03-23T21:25:58;8.52;;;1.05;;
76495;SDS011;65329;52.544;4.662;2024-03-23T21:28:25;5.88;;;0.55;;
76495;SDS011;65329;52.544;4.662;2024-03-23T21:30:51;3.85;;;0.77;;
76495;SDS011;65329;52.544;4.662;2024-03-23T21:33:18;3.28;;;0.73;;
76495;SDS011;65329;52.544;4.662;2024-03-23T21:35:55;2.92;;;0.80;;
76495;SDS011;65329;52.544;4.662;2024-03-23T21:38:24;4.93;;;0.82;;
76495;SDS011;65329;52.544;4.662;2024-03-23T21:40:54;1.98;;;0.88;;
76495;SDS011;65329;52.544;4.662;2024-03-23T21:43:21;1.50;;;0.95;;
76495;SDS011;65329;52.544;4.662;2024-03-23T21:48:27;5.57;;;0.95;;
76495;SDS011;65329;52.544;4.662;2024-03-23T21:51:03;1.38;;;0.82;;
76495;SDS011;65329;52.544;4.662;2024-03-23T21:53:30;6.28;;;1.63;;
76495;SDS011;65329;52.544;4.662;2024-03-23T21:55:58;3.53;;;1.05;;
76495;SDS011;65329;52.544;4.662;2024-03-23T21:58:25;4.50;;;1.33;;
76495;SDS011;65329;52.544;4.662;2024-03-23T22:00:52;2.97;;;0.77;;
76495;SDS011;65329;52.544;4.662;2024-03-23T22:03:20;3.38;;;0.85;;
76495;SDS011;65329;52.544;4.662;2024-03-23T22:05:52;2.58;;;0.93;;
76495;SDS011;65329;52.544;4.662;2024-03-23T22:08:19;9.55;;;1.55;;
76495;SDS011;65329;52.544;4.662;2024-03-23T22:10:45;2.72;;;0.68;;
76495;SDS011;65329;52.544;4.662;2024-03-23T22:13:16;4.45;;;1.00;;
76495;SDS011;65329;52.544;4.662;2024-03-23T22:15:42;4.18;;;1.40;;
76495;SDS011;65329;52.544;4.662;2024-03-23T22:18:09;4.00;;;1.30;;
76495;SDS011;65329;52.544;4.662;2024-03-23T22:20:35;5.90;;;1.05;;
76495;SDS011;65329;52.544;4.662;2024-03-23T22:23:02;6.72;;;1.52;;
76495;SDS011;65329;52.544;4.662;2024-03-23T22:25:28;6.93;;;1.60;;
76495;SDS011;65329;52.544;4.662;2024-03-23T22:30:23;4.00;;;1.60;;
76495;SDS011;65329;52.544;4.662;2024-03-23T22:35:16;2.80;;;1.33;;
76495;SDS011;65329;52.544;4.662;2024-03-23T22:37:45;3.80;;;1.52;;
76495;SDS011;65329;52.544;4.662;2024-03-23T22:40:11;3.45;;;1.25;;
76495;SDS011;65329;52.544;4.662;2024-03-23T22:42:37;8.50;;;1.65;;
76495;SDS011;65329;52.544;4.662;2024-03-23T22:45:04;3.63;;;1.40;;
76495;SDS011;65329;52.544;4.662;2024-03-23T22:47:32;7.88;;;2.40;;
76495;SDS011;65329;52.544;4.662;2024-03-23T22:49:59;6.50;;;1.80;;
76495;SDS011;65329;52.544;4.662;2024-03-23T22:54:51;3.90;;;1.50;;
76495;SDS011;65329;52.544;4.662;2024-03-23T22:57:17;6.30;;;2.08;;
76495;SDS011;65329;52.544;4.662;2024-03-23T23:02:09;3.97;;;0.82;;
76495;SDS011;65329;52.544;4.662;2024-03-23T23:07:01;3.35;;;1.80;;
76495;SDS011;65329;52.544;4.662;2024-03-23T23:09:28;5.78;;;1.80;;
76495;SDS011;65329;52.544;4.662;2024-03-23T23:14:21;4.10;;;1.65;;
76495;SDS011;65329;52.544;4.662;2024-03-23T23:16:47;6.30;;;1.75;;
76495;SDS011;65329;52.544;4.662;2024-03-23T23:19:13;7.20;;;2.00;;
76495;SDS011;65329;52.544;4.662;2024-03-23T23:21:40;6.97;;;2.10;;
76495;SDS011;65329;52.544;4.662;2024-03-23T23:24:07;13.23;;;2.45;;
76495;SDS011;65329;52.544;4.662;2024-03-23T23:26:33;9.00;;;2.20;;
76495;SDS011;65329;52.544;4.662;2024-03-23T23:28:59;7.25;;;1.73;;
76495;SDS011;65329;52.544;4.662;2024-03-23T23:31:25;6.22;;;1.85;;
76495;SDS011;65329;52.544;4.662;2024-03-23T23:33:51;9.43;;;2.47;;
76495;SDS011;65329;52.544;4.662;2024-03-23T23:36:17;7.30;;;2.33;;
76495;SDS011;65329;52.544;4.662;2024-03-23T23:38:49;9.65;;;2.83;;
76495;SDS011;65329;52.544;4.662;2024-03-23T23:41:16;9.73;;;2.83;;
76495;SDS011;65329;52.544;4.662;2024-03-23T23:43:42;8.25;;;2.22;;
76495;SDS011;65329;52.544;4.662;2024-03-23T23:46:20;9.18;;;2.72;;
76495;SDS011;65329;52.544;4.662;2024-03-23T23:48:49;6.70;;;2.55;;
76495;SDS011;65329;52.544;4.662;2024-03-23T23:51:16;9.02;;;2.70;;
76495;SDS011;65329;52.544;4.662;2024-03-23T23:53:42;6.78;;;2.25;;
76495;SDS011;65329;52.544;4.662;2024-03-23T23:56:10;11.85;;;3.10;;
76495;SDS011;65329;52.544;4.662;2024-03-23T23:58:37;10.35;;;2.72;;
